createdAt,value
2023-03-25T00:01:26.123Z,15.70
2023-03-25T00:03:54.517Z,15.50
2023-03-25T00:06:22.492Z,16.80
2023-03-25T00:08:52.105Z,16.20
2023-03-25T00:11:19.937Z,15.60
2023-03-25T00:13:50.658Z,14.90
2023-03-25T00:16:20.331Z,15.80
2023-03-25T00:18:51.274Z,16.30
2023-03-25T00:21:19.189Z,16.60
2023-03-25T00:23:47.789Z,16.10
2023-03-25T00:26:16.814Z,16.20
2023-03-25T00:28:44.805Z,15.90
2023-03-25T00:31:13.692Z,18.30
2023-03-25T00:33:41.974Z,19.70
2023-03-25T00:36:13.912Z,19.50
2023-03-25T00:38:45.763Z,16.90
2023-03-25T00:41:25.715Z,15.90
2023-03-25T00:43:56.668Z,16.00
2023-03-25T00:46:27.613Z,17.20
2023-03-25T00:48:56.909Z,17.20
2023-03-25T00:51:28.725Z,16.60
2023-03-25T00:54:00.689Z,16.70
2023-03-25T00:56:30.746Z,17.90
2023-03-25T00:58:59.376Z,16.60
2023-03-25T01:01:28.729Z,16.90
2023-03-25T01:03:58.163Z,16.80
2023-03-25T01:06:32.482Z,17.40
2023-03-25T01:09:06.028Z,17.00
2023-03-25T01:11:38.426Z,16.80
2023-03-25T01:14:09.576Z,16.60
2023-03-25T01:16:37.982Z,16.10
2023-03-25T01:19:06.144Z,16.00
2023-03-25T01:21:36.296Z,16.90
2023-03-25T01:24:05.765Z,17.20
2023-03-25T01:26:34.192Z,15.70
2023-03-25T01:29:02.442Z,17.00
2023-03-25T01:31:32.160Z,16.60
2023-03-25T01:34:00.963Z,17.20
2023-03-25T01:36:31.972Z,16.00
2023-03-25T01:39:01.565Z,15.70
2023-03-25T01:41:42.304Z,15.40
2023-03-25T01:44:22.082Z,15.60
2023-03-25T01:46:53.938Z,15.90
2023-03-25T01:49:33.669Z,16.00
2023-03-25T01:52:03.769Z,16.40
2023-03-25T01:54:32.727Z,15.10
2023-03-25T01:57:00.776Z,15.20
2023-03-25T01:59:29.444Z,15.10
2023-03-25T02:02:02.496Z,16.30
2023-03-25T02:04:39.244Z,16.00
2023-03-25T02:07:08.665Z,15.30
2023-03-25T02:09:37.515Z,14.20
2023-03-25T02:12:07.906Z,16.20
2023-03-25T02:14:37.337Z,15.30
2023-03-25T02:17:16.376Z,15.30
2023-03-25T02:20:09.111Z,15.40
2023-03-25T02:23:13.061Z,13.60
2023-03-25T02:26:12.282Z,14.80
2023-03-25T02:29:10.269Z,14.50
2023-03-25T02:32:06.764Z,14.90
2023-03-25T02:35:08.223Z,15.50
2023-03-25T02:38:07.450Z,14.60
2023-03-25T02:40:47.045Z,14.30
2023-03-25T02:43:27.149Z,15.30
2023-03-25T02:45:56.346Z,14.20
2023-03-25T02:48:31.486Z,15.40
2023-03-25T02:51:00.975Z,15.30
2023-03-25T02:53:30.680Z,15.70
2023-03-25T02:56:11.109Z,15.40
2023-03-25T02:58:39.792Z,15.70
2023-03-25T03:01:10.257Z,14.90
2023-03-25T03:03:40.465Z,15.70
2023-03-25T03:06:15.815Z,15.70
2023-03-25T03:08:51.467Z,15.90
2023-03-25T03:11:28.598Z,15.40
2023-03-25T03:14:31.260Z,15.60
2023-03-25T03:17:22.238Z,15.40
2023-03-25T03:19:54.454Z,14.90
2023-03-25T03:22:52.637Z,15.70
2023-03-25T03:25:28.190Z,15.70
2023-03-25T03:28:07.095Z,15.80
2023-03-25T03:33:41.012Z,15.50
2023-03-25T03:36:10.640Z,15.70
2023-03-25T03:38:40.725Z,15.70
2023-03-25T03:41:10.630Z,16.40
2023-03-25T03:43:52.980Z,17.10
2023-03-25T03:46:27.583Z,17.20
2023-03-25T03:48:56.964Z,16.00
2023-03-25T03:51:36.561Z,15.80
2023-03-25T03:54:06.909Z,17.10
2023-03-25T03:56:53.435Z,17.40
2023-03-25T03:59:46.704Z,16.40
2023-03-25T04:02:56.654Z,16.30
2023-03-25T04:05:30.878Z,16.20
2023-03-25T04:08:17.377Z,16.40
2023-03-25T04:10:54.388Z,17.00
2023-03-25T04:13:22.312Z,16.40
2023-03-25T04:15:50.537Z,16.20
2023-03-25T04:18:23.448Z,17.00
2023-03-25T04:20:51.485Z,17.00
2023-03-25T04:23:21.391Z,16.90
2023-03-25T04:25:55.014Z,17.70
2023-03-25T04:28:27.128Z,18.00
2023-03-25T04:30:57.033Z,17.40
2023-03-25T04:33:25.347Z,17.10
2023-03-25T04:35:54.240Z,16.60
2023-03-25T04:38:22.577Z,18.90
2023-03-25T04:40:50.569Z,17.30
2023-03-25T04:43:18.470Z,17.20
2023-03-25T04:45:54.930Z,17.60
2023-03-25T04:48:29.898Z,18.10
2023-03-25T04:50:59.156Z,17.40
2023-03-25T04:53:32.270Z,16.60
2023-03-25T04:56:00.213Z,16.80
2023-03-25T04:58:28.955Z,17.00
2023-03-25T05:01:06.262Z,18.30
2023-03-25T05:03:35.366Z,18.50
2023-03-25T05:06:03.436Z,18.70
2023-03-25T05:08:31.505Z,19.50
2023-03-25T05:10:59.715Z,19.60
2023-03-25T05:13:31.505Z,19.00
2023-03-25T05:15:59.708Z,18.70
2023-03-25T05:18:27.594Z,18.10
2023-03-25T05:20:59.976Z,18.10
2023-03-25T05:23:28.753Z,17.10
2023-03-25T05:25:56.584Z,18.90
2023-03-25T05:28:24.385Z,17.90
2023-03-25T05:30:52.504Z,17.20
2023-03-25T05:33:22.355Z,17.40
2023-03-25T05:35:50.733Z,17.40
2023-03-25T05:38:19.018Z,17.70
2023-03-25T05:40:47.778Z,17.60
2023-03-25T05:43:22.938Z,17.30
2023-03-25T05:45:53.225Z,18.00
2023-03-25T05:48:21.321Z,17.90
2023-03-25T05:50:49.518Z,17.30
2023-03-25T05:53:20.665Z,18.10
2023-03-25T05:55:52.360Z,19.40
2023-03-25T05:58:25.152Z,17.50
2023-03-25T06:00:54.682Z,17.00
2023-03-25T06:03:26.391Z,17.00
2023-03-25T06:05:55.264Z,16.50
2023-03-25T06:08:26.137Z,18.10
2023-03-25T06:11:00.736Z,17.10
2023-03-25T06:13:28.988Z,17.50
2023-03-25T06:15:57.588Z,17.60
2023-03-25T06:18:32.760Z,18.20
2023-03-25T06:21:00.702Z,18.10
2023-03-25T06:23:29.117Z,18.20
2023-03-25T06:25:58.736Z,17.50
2023-03-25T06:28:26.925Z,18.10
2023-03-25T06:31:03.442Z,17.20
2023-03-25T06:33:49.939Z,17.00
2023-03-25T06:36:18.882Z,17.10
2023-03-25T06:38:48.209Z,17.10
2023-03-25T06:41:20.687Z,16.70
2023-03-25T06:43:54.555Z,17.60
2023-03-25T06:46:40.941Z,17.50
2023-03-25T06:49:24.331Z,19.10
2023-03-25T06:51:54.096Z,18.30
2023-03-25T06:54:26.044Z,17.50
2023-03-25T06:56:55.060Z,18.10
2023-03-25T06:59:23.422Z,17.20
2023-03-25T07:01:52.474Z,17.10
2023-03-25T07:04:20.705Z,18.10
2023-03-25T07:06:57.879Z,18.00
2023-03-25T07:09:26.081Z,18.60
2023-03-25T07:11:54.095Z,17.50
2023-03-25T07:14:29.273Z,17.30
2023-03-25T07:16:57.829Z,17.60
2023-03-25T07:19:32.049Z,17.60
2023-03-25T07:22:02.569Z,17.60
2023-03-25T07:24:30.648Z,17.90
2023-03-25T07:26:58.518Z,19.30
2023-03-25T07:29:27.717Z,17.40
2023-03-25T07:31:55.651Z,18.60
2023-03-25T07:34:24.257Z,18.90
2023-03-25T07:36:53.046Z,18.70
2023-03-25T07:39:22.025Z,18.80
2023-03-25T07:41:49.906Z,19.20
2023-03-25T07:44:30.670Z,18.80
2023-03-25T07:47:00.607Z,19.70
2023-03-25T07:49:28.758Z,18.80
2023-03-25T07:51:56.630Z,19.00
2023-03-25T07:54:24.701Z,19.80
2023-03-25T07:56:55.769Z,20.30
2023-03-25T07:59:23.946Z,18.80
2023-03-25T08:01:52.048Z,19.90
2023-03-25T08:04:20.401Z,19.10
2023-03-25T08:06:48.435Z,19.60
2023-03-25T08:09:16.945Z,19.10
2023-03-25T08:11:45.973Z,18.40
2023-03-25T08:14:14.162Z,20.40
2023-03-25T08:16:42.956Z,18.50
2023-03-25T08:19:11.259Z,18.80
2023-03-25T08:21:41.131Z,18.30
2023-03-25T08:24:11.345Z,19.60
2023-03-25T08:26:44.274Z,18.90
2023-03-25T08:29:12.253Z,19.40
2023-03-25T08:31:41.828Z,19.10
2023-03-25T08:34:16.594Z,18.10
2023-03-25T08:36:46.226Z,18.30
2023-03-25T08:39:17.408Z,18.20
2023-03-25T08:41:45.508Z,19.90
2023-03-25T08:44:13.386Z,18.80
2023-03-25T08:46:41.413Z,19.20
2023-03-25T08:49:10.164Z,18.40
2023-03-25T08:51:42.271Z,18.80
2023-03-25T08:54:10.364Z,18.90
2023-03-25T08:56:38.283Z,18.20
2023-03-25T08:59:06.503Z,19.40
2023-03-25T09:01:35.123Z,19.40
2023-03-25T09:04:03.129Z,18.80
2023-03-25T09:06:47.190Z,19.90
2023-03-25T09:09:18.136Z,18.50
2023-03-25T09:11:47.009Z,18.80
2023-03-25T09:14:15.847Z,19.80
2023-03-25T09:16:43.644Z,18.90
2023-03-25T09:19:11.549Z,18.60
2023-03-25T09:21:39.682Z,18.90
2023-03-25T09:24:08.243Z,18.50
2023-03-25T09:26:37.216Z,19.60
2023-03-25T09:29:05.498Z,19.50
2023-03-25T09:31:41.608Z,18.80
2023-03-25T09:34:09.793Z,18.20
2023-03-25T09:36:38.204Z,19.20
2023-03-25T09:39:08.383Z,18.90
2023-03-25T09:42:04.256Z,17.90
2023-03-25T09:44:52.399Z,18.60
2023-03-25T09:47:20.648Z,18.30
2023-03-25T09:49:53.633Z,18.40
2023-03-25T09:52:25.359Z,18.80
2023-03-25T09:55:04.858Z,21.30
2023-03-25T09:57:33.506Z,20.80
2023-03-25T10:00:01.887Z,22.90
2023-03-25T10:02:41.730Z,23.10
2023-03-25T10:05:52.828Z,22.80
2023-03-25T10:08:23.833Z,22.90
2023-03-25T10:11:06.728Z,22.30
2023-03-25T10:13:44.982Z,20.90
2023-03-25T10:16:26.669Z,20.90
2023-03-25T10:21:56.449Z,20.40
2023-03-25T10:24:28.583Z,20.50
2023-03-25T10:27:00.743Z,22.20
2023-03-25T10:29:36.829Z,24.40
2023-03-25T10:32:28.590Z,22.60
2023-03-25T10:34:57.654Z,22.80
2023-03-25T10:37:30.846Z,22.80
2023-03-25T10:40:16.710Z,22.40
2023-03-25T10:43:10.752Z,22.60
2023-03-25T10:45:38.737Z,22.80
2023-03-25T10:48:16.836Z,22.50
2023-03-25T10:50:44.774Z,22.50
2023-03-25T10:53:26.400Z,21.80
2023-03-25T10:56:08.294Z,21.10
2023-03-25T10:58:37.327Z,21.60
2023-03-25T11:01:23.641Z,23.50
2023-03-25T11:04:17.502Z,21.50
2023-03-25T11:06:47.271Z,22.60
2023-03-25T11:09:31.109Z,25.90
2023-03-25T11:12:05.104Z,23.70
2023-03-25T11:14:38.533Z,22.60
2023-03-25T11:17:25.585Z,23.00
2023-03-25T11:20:03.884Z,22.10
2023-03-25T11:22:33.936Z,26.30
2023-03-25T11:25:04.861Z,23.20
2023-03-25T11:27:40.557Z,22.10
2023-03-25T11:30:16.434Z,23.20
2023-03-25T11:32:45.191Z,23.40
2023-03-25T11:35:24.718Z,24.50
2023-03-25T11:37:56.660Z,24.30
2023-03-25T11:40:24.610Z,24.10
2023-03-25T11:42:55.813Z,21.80
2023-03-25T11:45:35.857Z,22.40
2023-03-25T11:48:12.252Z,23.70
2023-03-25T11:50:45.328Z,23.60
2023-03-25T11:53:13.358Z,22.80
2023-03-25T11:56:08.268Z,21.50
2023-03-25T11:58:37.460Z,21.40
2023-03-25T12:01:28.558Z,21.50
2023-03-25T12:04:07.086Z,21.70
2023-03-25T12:06:36.573Z,22.60
2023-03-25T12:09:08.316Z,23.70
2023-03-25T12:11:42.745Z,21.90
2023-03-25T12:14:24.393Z,21.40
2023-03-25T12:17:30.442Z,23.30
2023-03-25T12:20:08.213Z,21.40
2023-03-25T12:22:36.440Z,20.90
2023-03-25T12:25:27.190Z,21.80
2023-03-25T12:28:16.973Z,21.30
2023-03-25T12:31:22.583Z,20.80
2023-03-25T12:33:54.425Z,21.10
2023-03-25T12:36:39.031Z,22.30
2023-03-25T12:39:39.472Z,22.30
2023-03-25T12:42:42.431Z,23.20
2023-03-25T12:48:16.269Z,31.60
2023-03-25T12:51:06.098Z,26.30
2023-03-25T12:54:05.853Z,22.70
2023-03-25T12:56:59.075Z,21.00
2023-03-25T12:59:45.645Z,21.50
2023-03-25T13:03:07.336Z,21.20
2023-03-25T13:05:47.406Z,20.50
2023-03-25T13:08:22.018Z,19.80
2023-03-25T13:11:16.457Z,22.80
2023-03-25T13:13:44.660Z,20.20
2023-03-25T13:16:16.273Z,20.20
2023-03-25T13:18:49.921Z,22.10
2023-03-25T13:21:24.693Z,22.10
2023-03-25T13:23:59.414Z,21.70
2023-03-25T13:26:29.558Z,23.00
2023-03-25T13:29:03.721Z,23.70
2023-03-25T13:31:35.605Z,23.60
2023-03-25T13:34:16.548Z,24.30
2023-03-25T13:37:20.127Z,24.00
2023-03-25T13:40:12.751Z,25.00
2023-03-25T13:42:50.684Z,24.80
2023-03-25T13:45:20.301Z,25.60
2023-03-25T13:48:03.728Z,23.80
2023-03-25T13:50:32.818Z,26.00
2023-03-25T13:53:33.336Z,24.40
2023-03-25T13:56:27.608Z,25.30
2023-03-25T13:59:04.594Z,24.90
2023-03-25T14:01:44.144Z,25.30
2023-03-25T14:04:26.500Z,24.70
2023-03-25T14:07:31.005Z,24.20
2023-03-25T14:10:20.063Z,25.10
2023-03-25T14:12:57.168Z,22.60
2023-03-25T14:15:30.319Z,23.50
2023-03-25T14:17:59.723Z,22.80
2023-03-25T14:20:41.386Z,24.30
2023-03-25T14:23:13.992Z,27.00
2023-03-25T14:25:44.882Z,31.20
2023-03-25T14:28:21.414Z,29.50
2023-03-25T14:31:16.724Z,28.80
2023-03-25T14:34:22.387Z,30.90
2023-03-25T14:36:50.144Z,29.00
2023-03-25T14:39:24.276Z,28.00
2023-03-25T14:41:58.205Z,28.60
2023-03-25T14:44:29.319Z,28.90
2023-03-25T14:47:04.622Z,29.70
2023-03-25T14:50:01.455Z,31.30
2023-03-25T14:52:33.730Z,30.10
2023-03-25T14:55:05.134Z,32.40
2023-03-25T14:57:39.713Z,30.70
2023-03-25T15:00:15.194Z,31.10
2023-03-25T15:02:44.101Z,31.30
2023-03-25T15:05:20.027Z,31.90
2023-03-25T15:08:06.723Z,32.00
2023-03-25T15:10:43.081Z,31.40
2023-03-25T15:13:33.681Z,31.00
2023-03-25T15:16:04.478Z,28.90
2023-03-25T15:18:35.605Z,29.50
2023-03-25T15:21:08.329Z,32.00
2023-03-25T15:23:55.008Z,32.40
2023-03-25T15:26:28.745Z,31.10
2023-03-25T15:29:19.010Z,33.30
2023-03-25T15:32:34.806Z,35.40
2023-03-25T15:35:21.619Z,34.70
2023-03-25T15:38:18.060Z,33.60
2023-03-25T15:41:16.694Z,37.40
2023-03-25T15:44:01.086Z,46.30
2023-03-25T15:46:38.415Z,49.90
2023-03-25T15:49:15.837Z,53.30
2023-03-25T15:51:57.022Z,49.10
2023-03-25T15:54:45.483Z,44.50
2023-03-25T15:57:19.866Z,41.10
2023-03-25T16:00:29.438Z,45.80
2023-03-25T16:03:20.934Z,54.80
2023-03-25T16:06:00.656Z,45.00
2023-03-25T16:08:34.499Z,50.00
2023-03-25T16:11:20.980Z,51.30
2023-03-25T16:13:58.378Z,50.90
2023-03-25T16:16:27.388Z,50.90
2023-03-25T16:18:55.960Z,51.10
2023-03-25T16:21:24.332Z,50.30
2023-03-25T16:23:53.029Z,48.70
2023-03-25T16:26:34.953Z,47.70
2023-03-25T16:29:18.415Z,47.90
2023-03-25T16:32:00.152Z,49.80
2023-03-25T16:34:29.789Z,51.60
2023-03-25T16:36:57.953Z,49.60
2023-03-25T16:39:26.285Z,48.30
2023-03-25T16:42:19.164Z,49.20
2023-03-25T16:44:47.235Z,46.20
2023-03-25T16:47:15.874Z,50.50
2023-03-25T16:49:47.059Z,49.90
2023-03-25T16:52:19.654Z,49.60
2023-03-25T16:55:26.818Z,49.00
2023-03-25T16:57:55.685Z,47.90
2023-03-25T17:00:24.545Z,59.40
2023-03-25T17:02:54.052Z,56.20
2023-03-25T17:05:24.812Z,54.40
2023-03-25T17:08:04.195Z,52.20
2023-03-25T17:10:50.973Z,48.80
2023-03-25T17:13:24.810Z,49.10
2023-03-25T17:15:54.213Z,46.10
2023-03-25T17:18:25.822Z,45.50
2023-03-25T17:20:57.563Z,42.40
2023-03-25T17:23:36.453Z,44.30
2023-03-25T17:26:09.053Z,42.40
2023-03-25T17:28:58.362Z,41.70
2023-03-25T17:31:29.794Z,41.20
2023-03-25T17:34:14.605Z,39.50
2023-03-25T17:36:47.806Z,39.10
2023-03-25T17:39:22.598Z,37.30
2023-03-25T17:41:58.808Z,35.30
2023-03-25T17:44:40.301Z,35.00
2023-03-25T17:47:10.548Z,36.30
2023-03-25T17:49:38.768Z,48.30
2023-03-25T17:52:08.921Z,61.80
2023-03-25T17:54:38.100Z,50.00
2023-03-25T17:57:16.210Z,49.60
2023-03-25T17:59:44.571Z,48.20
2023-03-25T18:02:14.660Z,45.80
2023-03-25T18:04:42.575Z,47.10
2023-03-25T18:07:12.047Z,46.90
2023-03-25T18:09:41.329Z,46.60
2023-03-25T18:12:14.705Z,45.80
2023-03-25T18:14:44.956Z,44.20
2023-03-25T18:17:13.070Z,45.40
2023-03-25T18:19:47.309Z,45.00
2023-03-25T18:22:20.242Z,47.90
2023-03-25T18:24:48.968Z,43.70
2023-03-25T18:27:27.781Z,45.10
2023-03-25T18:30:15.525Z,44.30
2023-03-25T18:32:43.573Z,43.90
2023-03-25T18:35:11.815Z,40.30
2023-03-25T18:37:41.748Z,39.90
2023-03-25T18:40:23.896Z,42.20
2023-03-25T18:42:52.870Z,42.20
2023-03-25T18:45:21.851Z,42.50
2023-03-25T18:47:50.515Z,42.40
2023-03-25T18:50:26.728Z,39.30
2023-03-25T18:53:00.748Z,36.70
2023-03-25T18:55:29.918Z,37.80
2023-03-25T18:57:57.803Z,39.90
2023-03-25T19:00:28.979Z,41.70
2023-03-25T19:02:58.441Z,42.80
2023-03-25T19:05:26.533Z,41.10
2023-03-25T19:07:54.728Z,42.50
2023-03-25T19:10:25.432Z,42.30
2023-03-25T19:12:53.258Z,42.80
2023-03-25T19:15:21.867Z,43.90
2023-03-25T19:17:49.985Z,45.20
2023-03-25T19:20:22.539Z,45.10
2023-03-25T19:22:51.161Z,48.90
2023-03-25T19:25:19.557Z,45.50
2023-03-25T19:27:49.183Z,47.40
2023-03-25T19:30:19.207Z,48.00
2023-03-25T19:32:48.197Z,48.70
2023-03-25T19:35:18.392Z,47.80
2023-03-25T19:37:56.246Z,49.50
2023-03-25T19:42:57.436Z,49.80
2023-03-25T19:45:26.041Z,51.00
2023-03-25T19:47:56.040Z,52.10
2023-03-25T19:50:26.648Z,51.40
2023-03-25T19:53:02.924Z,49.60
2023-03-25T19:55:31.113Z,46.40
2023-03-25T19:57:59.251Z,46.90
2023-03-25T20:00:27.482Z,44.10
2023-03-25T20:03:01.647Z,44.90
2023-03-25T20:05:30.767Z,43.30
2023-03-25T20:07:59.271Z,40.90
2023-03-25T20:10:28.520Z,45.40
2023-03-25T20:12:56.526Z,48.50
2023-03-25T20:15:25.685Z,50.00
2023-03-25T20:17:54.282Z,51.40
2023-03-25T20:20:23.185Z,51.80
2023-03-25T20:22:51.794Z,54.50
2023-03-25T20:25:19.872Z,53.80
2023-03-25T20:27:48.908Z,51.90
2023-03-25T20:30:18.324Z,54.20
2023-03-25T20:32:48.072Z,53.10
2023-03-25T20:35:17.714Z,54.00
2023-03-25T20:37:46.963Z,54.40
2023-03-25T20:40:16.539Z,51.90
2023-03-25T20:42:46.324Z,53.50
2023-03-25T20:45:17.176Z,53.70
2023-03-25T20:47:45.412Z,51.60
2023-03-25T20:50:14.577Z,52.90
2023-03-25T20:52:43.924Z,52.10
2023-03-25T20:55:11.991Z,54.00
2023-03-25T20:57:44.298Z,51.70
2023-03-25T21:00:18.234Z,52.50
2023-03-25T21:02:47.855Z,52.90
2023-03-25T21:05:16.315Z,51.40
2023-03-25T21:07:44.241Z,51.30
2023-03-25T21:10:12.179Z,49.90
2023-03-25T21:12:44.995Z,50.30
2023-03-25T21:15:16.935Z,48.40
2023-03-25T21:17:45.010Z,47.40
2023-03-25T21:20:16.191Z,46.50
2023-03-25T21:22:44.609Z,43.80
2023-03-25T21:25:14.825Z,43.90
2023-03-25T21:27:45.303Z,42.60
2023-03-25T21:30:14.122Z,43.10
2023-03-25T21:32:43.731Z,42.20
2023-03-25T21:35:11.903Z,40.50
2023-03-25T21:37:40.260Z,37.00
2023-03-25T21:40:11.370Z,35.60
2023-03-25T21:42:41.498Z,37.00
2023-03-25T21:45:11.558Z,36.40
2023-03-25T21:47:40.332Z,33.50
2023-03-25T21:50:10.656Z,33.80
2023-03-25T21:52:43.189Z,32.80
2023-03-25T21:55:11.379Z,32.90
2023-03-25T21:57:40.034Z,32.60
2023-03-25T22:00:09.014Z,32.40
2023-03-25T22:02:45.043Z,32.70
2023-03-25T22:05:14.273Z,33.10
2023-03-25T22:07:42.224Z,32.40
2023-03-25T22:10:11.127Z,33.60
2023-03-25T22:12:39.451Z,33.70
2023-03-25T22:15:13.232Z,33.50
2023-03-25T22:17:44.043Z,35.40
2023-03-25T22:20:12.350Z,38.10
2023-03-25T22:22:42.898Z,36.00
2023-03-25T22:25:11.158Z,35.70
2023-03-25T22:27:38.977Z,36.70
2023-03-25T22:30:07.835Z,37.70
2023-03-25T22:32:36.697Z,38.20
2023-03-25T22:35:05.372Z,36.60
2023-03-25T22:37:35.085Z,37.20
2023-03-25T22:40:04.316Z,39.30
2023-03-25T22:42:32.366Z,41.40
2023-03-25T22:45:00.602Z,41.20
2023-03-25T22:47:28.652Z,39.80
2023-03-25T22:49:56.792Z,41.50
2023-03-25T22:52:25.878Z,42.00
2023-03-25T22:54:54.077Z,41.80
2023-03-25T22:57:22.139Z,42.40
2023-03-25T22:59:52.451Z,41.30
2023-03-25T23:02:20.900Z,39.60
2023-03-25T23:04:48.917Z,38.30
2023-03-25T23:07:17.140Z,36.20
2023-03-25T23:09:47.551Z,33.10
2023-03-25T23:12:17.262Z,31.70
2023-03-25T23:14:49.266Z,29.80
2023-03-25T23:17:17.871Z,26.40
2023-03-25T23:19:46.562Z,25.80
2023-03-25T23:22:17.201Z,24.60
2023-03-25T23:24:45.603Z,22.20
2023-03-25T23:27:13.576Z,20.60
2023-03-25T23:29:41.972Z,19.80
2023-03-25T23:32:10.147Z,19.10
2023-03-25T23:34:38.594Z,17.20
2023-03-25T23:37:09.289Z,15.70
2023-03-25T23:39:37.424Z,15.20
2023-03-25T23:42:05.902Z,16.40
2023-03-25T23:44:34.518Z,16.00
2023-03-25T23:47:02.480Z,16.00
2023-03-25T23:49:33.969Z,17.40
2023-03-25T23:52:05.644Z,20.10
2023-03-25T23:54:35.088Z,21.20
2023-03-25T23:57:03.153Z,25.00
2023-03-25T23:59:32.057Z,27.20
